createdAt,value
2019-05-13T06:56:39.379Z,8.15
2019-05-13T06:59:11.891Z,7.95
2019-05-13T07:01:43.822Z,7.53
2019-05-13T07:04:15.337Z,6.92
2019-05-13T07:19:41.227Z,7.78
2019-05-13T07:24:43.892Z,7.55
2019-05-13T07:27:15.659Z,7.60
2019-05-13T07:29:47.587Z,7.67
2019-05-13T07:32:21.940Z,7.50
2019-05-13T07:34:53.428Z,7.25
2019-05-13T07:37:26.137Z,5.33
2019-05-13T07:39:58.208Z,7.08
2019-05-13T07:42:31.237Z,6.30
2019-05-13T07:47:33.582Z,6.28
2019-05-13T07:50:05.260Z,6.58
2019-05-13T07:52:37.052Z,6.47
2019-05-13T07:55:11.783Z,7.08
2019-05-13T07:57:42.543Z,6.10
2019-05-13T08:00:14.315Z,6.22
2019-05-13T08:02:46.057Z,6.85
2019-05-13T08:05:17.945Z,6.05
2019-05-13T08:07:51.500Z,6.03
2019-05-13T08:10:22.858Z,6.70
2019-05-13T08:12:55.480Z,6.17
2019-05-13T08:15:27.221Z,6.12
2019-05-13T08:18:01.804Z,6.33
2019-05-13T08:20:32.862Z,6.40
2019-05-13T08:23:04.717Z,7.00
2019-05-13T08:25:37.063Z,6.80
2019-05-13T08:28:09.224Z,6.73
2019-05-13T08:30:42.658Z,6.78
2019-05-13T08:33:14.205Z,7.30
2019-05-13T08:35:47.063Z,7.05
2019-05-13T08:38:19.286Z,6.42
2019-05-13T08:40:54.036Z,6.83
2019-05-13T08:43:25.349Z,6.20
2019-05-13T08:45:57.013Z,6.35
2019-05-13T08:48:28.605Z,4.75
2019-05-13T08:51:03.029Z,6.10
2019-05-13T08:53:33.735Z,6.08
2019-05-13T08:56:05.352Z,5.03
2019-05-13T08:58:37.358Z,5.90
2019-05-13T09:01:09.182Z,6.08
2019-05-13T09:06:14.710Z,5.90
2019-05-13T09:08:46.192Z,5.65
2019-05-13T09:11:18.319Z,6.10
2019-05-13T09:13:51.604Z,5.95
2019-05-13T09:16:23.532Z,5.87
2019-05-13T09:18:55.115Z,5.78
2019-05-13T09:21:26.883Z,6.08
2019-05-13T09:23:58.603Z,5.58
2019-05-13T09:26:31.567Z,6.60
2019-05-13T09:29:03.642Z,6.05
2019-05-13T09:31:35.869Z,5.83
2019-05-13T09:34:07.843Z,6.20
2019-05-13T09:36:41.758Z,6.50
2019-05-13T09:39:12.866Z,6.20
2019-05-13T09:41:44.810Z,6.65
2019-05-13T09:44:16.696Z,6.05
2019-05-13T09:46:48.464Z,6.05
2019-05-13T09:49:23.553Z,6.05
2019-05-13T09:51:53.486Z,6.20
2019-05-13T09:54:25.018Z,5.45
2019-05-13T09:56:57.054Z,5.53
2019-05-13T09:59:28.573Z,5.75
2019-05-13T10:02:03.013Z,5.25
2019-05-13T10:04:34.112Z,5.20
2019-05-13T10:07:05.838Z,4.53
2019-05-13T10:09:37.636Z,4.25
2019-05-13T10:12:11.915Z,5.00
2019-05-13T10:14:42.965Z,4.80
2019-05-13T10:17:14.699Z,4.97
2019-05-13T10:19:46.493Z,4.97
2019-05-13T10:22:18.381Z,5.03
2019-05-13T10:24:51.391Z,4.12
2019-05-13T10:27:24.822Z,6.03
2019-05-13T10:32:27.300Z,9.60
2019-05-13T10:35:02.997Z,8.05
2019-05-13T10:37:33.642Z,5.85
2019-05-13T10:40:05.518Z,4.78
2019-05-13T10:42:37.520Z,5.90
2019-05-13T10:45:09.429Z,7.08
2019-05-13T10:47:42.350Z,4.70
2019-05-13T10:50:15.458Z,4.47
2019-05-13T10:52:48.328Z,4.25
2019-05-13T10:55:21.578Z,4.90
2019-05-13T10:57:54.767Z,3.87
2019-05-13T11:00:42.820Z,3.80
2019-05-13T11:03:15.927Z,3.83
2019-05-13T11:05:48.651Z,5.35
2019-05-13T11:08:22.147Z,6.17
2019-05-13T11:10:54.487Z,5.45
2019-05-13T11:13:26.239Z,5.83
2019-05-13T11:15:58.677Z,3.80
2019-05-13T11:18:30.579Z,3.10
2019-05-13T11:21:02.995Z,3.55
2019-05-13T11:23:34.720Z,3.50
2019-05-13T11:26:06.281Z,4.10
2019-05-13T11:28:38.232Z,3.30
2019-05-13T11:31:09.930Z,3.52
2019-05-13T11:33:42.688Z,2.50
2019-05-13T11:36:18.988Z,2.37
2019-05-13T11:38:48.487Z,2.98
2019-05-13T11:41:22.866Z,2.85
2019-05-13T11:44:12.038Z,3.05
2019-05-13T11:46:27.334Z,2.58
2019-05-13T11:48:58.970Z,2.50
2019-05-13T11:51:31.962Z,3.02
2019-05-13T11:56:34.401Z,3.50
2019-05-13T11:59:05.988Z,3.10
2019-05-13T12:01:37.668Z,2.52
2019-05-13T12:04:09.247Z,2.50
2019-05-13T12:06:48.538Z,2.50
2019-05-13T12:09:14.447Z,2.87
2019-05-13T12:11:45.952Z,2.85
2019-05-13T12:14:39.168Z,2.40
2019-05-13T12:16:52.645Z,2.83
2019-05-13T12:19:24.486Z,2.80
2019-05-13T12:21:56.254Z,3.00
2019-05-13T12:24:28.170Z,2.95
2019-05-13T12:27:03.294Z,3.52
2019-05-13T12:29:33.350Z,2.70
2019-05-13T12:32:04.979Z,2.65
2019-05-13T12:34:40.758Z,3.10
2019-05-13T12:37:12.305Z,2.80
2019-05-13T12:39:44.259Z,2.83
2019-05-13T12:42:15.784Z,3.05
2019-05-13T12:47:22.764Z,3.00
2019-05-13T12:49:54.641Z,3.47
2019-05-13T12:52:25.884Z,3.10
2019-05-13T12:54:57.922Z,3.20
2019-05-13T12:57:31.917Z,2.83
2019-05-13T13:00:03.401Z,3.33
2019-05-13T13:02:37.215Z,3.37
2019-05-13T13:05:14.078Z,3.50
2019-05-13T13:07:42.680Z,4.08
2019-05-13T13:10:14.985Z,3.70
2019-05-13T13:12:46.496Z,3.97
2019-05-13T13:15:37.225Z,3.85
2019-05-13T13:17:54.013Z,3.02
2019-05-13T13:20:25.986Z,3.60
2019-05-13T13:22:57.987Z,3.35
2019-05-13T13:25:29.395Z,3.35
2019-05-13T13:30:35.452Z,3.08
2019-05-13T13:33:07.278Z,2.92
2019-05-13T13:35:44.088Z,3.12
2019-05-13T13:38:12.550Z,3.20
2019-05-13T13:40:45.673Z,3.70
2019-05-13T13:43:17.791Z,3.40
2019-05-13T13:46:07.730Z,3.15
2019-05-13T13:48:25.714Z,3.20
2019-05-13T13:50:57.571Z,2.80
2019-05-13T13:53:29.537Z,3.83
2019-05-13T13:56:02.271Z,2.87
2019-05-13T13:58:33.980Z,3.47
2019-05-13T14:01:12.484Z,3.75
2019-05-13T14:03:45.614Z,3.80
2019-05-13T14:06:12.867Z,3.10
2019-05-13T14:06:25.036Z,5.60
2019-05-13T14:06:58.377Z,3.33
2019-05-13T14:07:13.139Z,2.87
2019-05-13T14:08:44.450Z,2.77
2019-05-13T14:11:16.058Z,2.85
2019-05-13T14:13:47.675Z,2.87
2019-05-13T14:16:28.482Z,3.25
2019-05-13T14:18:53.262Z,2.70
2019-05-13T14:21:25.315Z,2.77
2019-05-13T14:23:57.270Z,3.98
2019-05-13T14:26:28.943Z,3.80
2019-05-13T14:29:02.626Z,3.33
2019-05-13T14:31:34.428Z,3.17
2019-05-13T14:34:06.307Z,2.60
2019-05-13T14:36:37.786Z,3.27
2019-05-13T14:39:12.049Z,3.10
2019-05-13T14:41:43.590Z,4.28
2019-05-13T14:44:15.159Z,2.70
2019-05-13T14:46:48.025Z,2.72
2019-05-13T14:51:52.247Z,2.87
2019-05-13T14:54:26.825Z,2.87
2019-05-13T14:56:59.143Z,3.22
2019-05-13T14:59:31.588Z,4.22
2019-05-13T15:02:03.460Z,3.72
2019-05-13T15:04:36.147Z,3.20
2019-05-13T15:07:07.882Z,4.05
2019-05-13T15:09:41.948Z,4.10
2019-05-13T15:12:12.817Z,4.15
2019-05-13T15:14:44.377Z,4.95
2019-05-13T15:17:16.038Z,4.25
2019-05-13T15:19:47.816Z,4.28
2019-05-13T15:22:22.467Z,4.92
2019-05-13T15:24:52.875Z,4.05
2019-05-13T15:27:24.661Z,4.50
2019-05-13T15:29:56.399Z,4.87
2019-05-13T15:32:28.353Z,5.20
2019-05-13T15:35:02.234Z,4.85
2019-05-13T15:37:33.729Z,4.42
2019-05-13T15:40:05.474Z,4.72
2019-05-13T15:42:37.112Z,4.58
2019-05-13T15:45:12.680Z,4.22
2019-05-13T15:47:44.646Z,4.30
2019-05-13T15:50:17.397Z,3.83
2019-05-13T15:52:49.179Z,4.97
2019-05-13T15:55:22.082Z,4.50
2019-05-13T15:57:53.582Z,4.12
2019-05-13T16:00:25.230Z,4.92
2019-05-13T16:02:57.406Z,4.90
2019-05-13T16:05:28.985Z,4.90
2019-05-13T16:08:02.490Z,4.62
2019-05-13T16:10:34.603Z,5.37
2019-05-13T16:13:06.296Z,4.67
2019-05-13T16:15:38.222Z,5.30
2019-05-13T16:18:11.708Z,5.20
2019-05-13T16:20:45.369Z,5.70
2019-05-13T16:23:16.480Z,5.75
2019-05-13T16:25:48.074Z,5.62
2019-05-13T16:28:19.952Z,6.55
2019-05-13T16:30:51.797Z,7.72
2019-05-13T16:33:24.497Z,7.08
2019-05-13T16:35:56.129Z,7.53
2019-05-13T16:38:27.984Z,5.83
2019-05-13T16:40:59.814Z,6.50
2019-05-13T16:43:32.074Z,6.70
2019-05-13T16:46:07.038Z,7.20
2019-05-13T16:48:37.252Z,7.45
2019-05-13T16:51:12.339Z,8.00
2019-05-13T16:53:43.380Z,7.62
2019-05-13T16:56:26.422Z,6.53
2019-05-13T16:58:48.952Z,7.20
2019-05-13T17:01:21.957Z,7.80
2019-05-13T17:06:24.193Z,7.37
2019-05-13T17:08:56.051Z,6.75
2019-05-13T17:11:27.774Z,6.85
2019-05-13T17:13:59.382Z,6.83
2019-05-13T17:16:31.718Z,6.33
2019-05-13T17:19:03.685Z,6.67
2019-05-13T17:21:36.157Z,5.75
2019-05-13T17:24:07.895Z,6.45
2019-05-13T17:26:41.592Z,8.10
2019-05-13T17:29:12.768Z,6.03
2019-05-13T17:31:44.678Z,7.87
2019-05-13T17:34:16.900Z,6.97
2019-05-13T17:36:48.627Z,7.22
2019-05-13T17:39:21.347Z,5.90
2019-05-13T17:41:53.477Z,8.20
2019-05-13T17:44:25.323Z,6.50
2019-05-13T17:46:57.052Z,5.30
2019-05-13T17:49:28.644Z,5.50
2019-05-13T17:52:02.455Z,5.90
2019-05-13T17:54:34.819Z,6.42
2019-05-13T17:57:06.336Z,6.50
2019-05-13T17:59:38.037Z,6.08
2019-05-13T18:02:11.803Z,6.00
2019-05-13T18:04:43.501Z,6.20
2019-05-13T18:07:18.221Z,7.08
2019-05-13T18:09:52.059Z,5.53
2019-05-13T18:12:24.009Z,5.40
2019-05-13T18:14:55.535Z,5.58
2019-05-13T18:17:27.312Z,5.12
2019-05-13T18:20:02.419Z,4.58
2019-05-13T18:22:33.649Z,5.10
2019-05-13T18:25:05.200Z,5.17
2019-05-13T18:27:37.254Z,6.00
2019-05-13T18:30:11.316Z,4.62
2019-05-13T18:32:42.682Z,4.55
2019-05-13T18:35:14.755Z,4.53
2019-05-13T18:37:46.370Z,4.33
2019-05-13T18:40:18.578Z,4.40
2019-05-13T18:42:51.442Z,4.17
2019-05-13T18:45:23.371Z,4.15
2019-05-13T18:47:54.968Z,4.20
2019-05-13T18:50:26.546Z,4.97
2019-05-13T18:52:58.183Z,4.08
2019-05-13T18:55:30.175Z,4.47
2019-05-13T18:58:01.897Z,4.97
2019-05-13T19:00:33.491Z,4.97
2019-05-13T19:03:05.571Z,5.35
2019-05-13T19:05:37.164Z,5.72
2019-05-13T19:08:08.905Z,6.97
2019-05-13T19:10:41.490Z,6.45
2019-05-13T19:13:13.736Z,6.03
2019-05-13T19:15:45.406Z,6.30
2019-05-13T19:18:18.139Z,5.85
2019-05-13T19:20:51.322Z,5.42
2019-05-13T19:23:23.423Z,5.15
2019-05-13T19:25:55.061Z,4.97
2019-05-13T19:28:26.892Z,5.53
2019-05-13T19:30:58.558Z,5.47
2019-05-13T19:33:30.351Z,5.70
2019-05-13T19:36:02.020Z,5.25
2019-05-13T19:38:34.164Z,5.25
2019-05-13T19:41:05.990Z,5.30
2019-05-13T19:43:37.808Z,5.55
2019-05-13T19:46:09.644Z,5.40
2019-05-13T19:48:41.858Z,5.67
2019-05-13T19:51:13.579Z,6.08
2019-05-13T19:53:45.274Z,5.70
2019-05-13T19:56:17.165Z,5.78
2019-05-13T19:58:49.298Z,5.37
2019-05-13T20:01:21.763Z,5.50
2019-05-13T20:03:53.594Z,6.12
2019-05-13T20:06:26.049Z,5.60
2019-05-13T20:08:57.943Z,6.75
2019-05-13T20:11:29.658Z,5.58
2019-05-13T20:14:01.535Z,5.53
2019-05-13T20:16:33.374Z,6.60
2019-05-13T20:19:05.141Z,7.60
2019-05-13T20:21:37.127Z,7.78
2019-05-13T20:24:08.927Z,7.28
2019-05-13T20:26:42.038Z,6.17
2019-05-13T20:29:13.817Z,6.17
2019-05-13T20:31:45.572Z,5.90
2019-05-13T20:34:17.027Z,6.03
2019-05-13T20:36:51.435Z,6.47
2019-05-13T20:39:22.587Z,6.10
2019-05-13T20:41:55.874Z,5.72
2019-05-13T20:44:27.892Z,6.35
2019-05-13T20:47:01.630Z,6.40
2019-05-13T20:49:33.025Z,6.47
2019-05-13T20:52:04.772Z,5.70
2019-05-13T20:54:36.540Z,5.70
2019-05-13T20:57:08.126Z,6.25
2019-05-13T20:59:41.361Z,6.35
2019-05-13T21:04:44.282Z,6.03
2019-05-13T21:07:17.112Z,5.97
2019-05-13T21:09:48.585Z,6.08
2019-05-13T21:12:22.014Z,5.85
2019-05-13T21:14:53.388Z,5.72
2019-05-13T21:17:25.419Z,5.97
2019-05-13T21:20:01.108Z,5.65
2019-05-13T21:22:31.735Z,6.53
2019-05-13T21:25:03.464Z,5.55
2019-05-13T21:27:35.180Z,5.05
2019-05-13T21:30:06.959Z,4.92
2019-05-13T21:32:38.701Z,4.83
2019-05-13T21:35:11.897Z,4.25
2019-05-13T21:37:43.924Z,4.40
2019-05-13T21:40:18.276Z,4.87
2019-05-13T21:42:52.441Z,4.40
2019-05-13T21:45:23.561Z,3.83
2019-05-13T21:47:55.271Z,3.30
2019-05-13T21:50:34.241Z,3.50
2019-05-13T21:53:02.051Z,3.05
2019-05-13T21:55:33.974Z,3.60
2019-05-13T21:58:05.621Z,3.30
2019-05-13T22:00:42.992Z,3.50
2019-05-13T22:03:15.961Z,3.47
2019-05-13T22:05:47.650Z,3.50
2019-05-13T22:08:21.669Z,4.28
2019-05-13T22:10:53.164Z,3.95
2019-05-13T22:13:25.074Z,3.70
2019-05-13T22:15:56.992Z,3.72
2019-05-13T22:18:31.427Z,3.92
2019-05-13T22:21:02.645Z,3.75
2019-05-13T22:23:34.261Z,3.90
2019-05-13T22:26:05.987Z,3.67
2019-05-13T22:28:37.824Z,4.05
2019-05-13T22:31:11.639Z,3.77
2019-05-13T22:33:45.205Z,4.40
2019-05-13T22:38:46.735Z,4.45
2019-05-13T22:41:18.122Z,4.90
2019-05-13T22:43:55.628Z,4.05
2019-05-13T22:46:23.318Z,5.15
2019-05-13T22:48:55.258Z,5.10
2019-05-13T22:51:26.955Z,5.30
2019-05-13T22:53:59.257Z,5.08
2019-05-13T22:56:31.985Z,5.28
2019-05-13T22:59:04.040Z,5.80
2019-05-13T23:01:36.203Z,5.28
2019-05-13T23:06:40.184Z,5.28
2019-05-13T23:09:12.620Z,5.15
2019-05-13T23:11:47.203Z,5.47
2019-05-13T23:14:19.131Z,5.33
2019-05-13T23:16:50.879Z,5.08
2019-05-13T23:19:22.399Z,6.08
2019-05-13T23:21:54.998Z,5.50
2019-05-13T23:24:26.712Z,5.33
2019-05-13T23:26:58.560Z,5.47
2019-05-13T23:29:31.934Z,5.83
2019-05-13T23:32:04.970Z,5.58
2019-05-13T23:34:36.701Z,5.92
2019-05-13T23:37:08.465Z,6.47
2019-05-13T23:39:41.612Z,5.80
2019-05-13T23:42:14.635Z,5.90
2019-05-13T23:44:46.566Z,6.60
2019-05-13T23:47:18.573Z,6.37
2019-05-13T23:49:51.308Z,6.47
2019-05-13T23:52:23.284Z,6.62
2019-05-13T23:54:55.024Z,7.08
2019-05-13T23:57:27.097Z,6.47
2019-05-13T23:59:58.715Z,6.87
